createdAt,value
2017-11-28T00:00:52.352Z,64.60
2017-11-28T00:03:21.033Z,65.30
2017-11-28T00:05:49.705Z,64.50
2017-11-28T00:08:24.629Z,64.50
2017-11-28T00:10:53.336Z,64.60
2017-11-28T00:13:21.997Z,64.70
2017-11-28T00:15:50.673Z,64.70
2017-11-28T00:18:20.149Z,65.40
2017-11-28T00:20:48.883Z,64.70
2017-11-28T00:23:18.389Z,64.70
2017-11-28T00:25:47.059Z,64.70
2017-11-28T00:28:16.503Z,65.00
2017-11-28T00:30:52.131Z,65.20
2017-11-28T00:33:26.936Z,65.10
2017-11-28T00:36:02.616Z,64.80
2017-11-28T00:38:31.292Z,64.80
2017-11-28T00:41:00.985Z,64.90
2017-11-28T00:43:29.681Z,64.70
2017-11-28T00:45:59.092Z,64.60
2017-11-28T00:48:36.519Z,64.60
2017-11-28T00:51:23.701Z,64.40
2017-11-28T00:53:52.417Z,64.50
2017-11-28T00:56:25.096Z,64.50
2017-11-28T00:58:56.491Z,64.20
2017-11-28T01:01:30.167Z,64.10
2017-11-28T01:04:07.758Z,64.20
2017-11-28T01:06:37.504Z,64.10
2017-11-28T01:09:06.956Z,64.20
2017-11-28T01:11:37.459Z,63.90
2017-11-28T01:14:08.862Z,64.10
2017-11-28T01:16:38.364Z,64.10
2017-11-28T01:19:11.862Z,64.00
2017-11-28T01:21:41.744Z,63.90
2017-11-28T01:24:11.922Z,63.90
2017-11-28T01:26:43.366Z,64.00
2017-11-28T01:29:22.642Z,64.00
2017-11-28T01:31:54.633Z,64.20
2017-11-28T01:35:12.791Z,64.30
2017-11-28T01:37:46.985Z,64.30
2017-11-28T01:40:15.652Z,63.90
2017-11-28T01:42:50.694Z,64.00
2017-11-28T01:45:29.669Z,64.10
2017-11-28T01:48:05.407Z,64.20
2017-11-28T01:50:37.846Z,64.00
2017-11-28T01:53:08.329Z,64.10
2017-11-28T01:55:45.900Z,64.10
2017-11-28T01:58:14.577Z,63.70
2017-11-28T02:00:43.246Z,63.70
2017-11-28T02:03:18.144Z,63.60
2017-11-28T02:05:53.093Z,63.70
2017-11-28T02:08:21.800Z,63.70
2017-11-28T02:10:50.486Z,63.90
2017-11-28T02:13:25.422Z,64.00
2017-11-28T02:15:54.105Z,64.00
2017-11-28T02:18:25.824Z,64.10
2017-11-28T02:20:55.629Z,64.00
2017-11-28T02:23:25.051Z,64.00
2017-11-28T02:26:00.941Z,64.10
2017-11-28T02:28:35.174Z,64.10
2017-11-28T02:31:08.561Z,64.30
2017-11-28T02:33:45.300Z,64.30
2017-11-28T02:36:15.366Z,64.20
2017-11-28T02:38:50.485Z,64.30
2017-11-28T02:41:21.922Z,64.20
2017-11-28T02:44:13.436Z,64.20
2017-11-28T02:46:45.788Z,64.10
2017-11-28T02:49:44.283Z,64.20
2017-11-28T02:52:18.653Z,64.20
2017-11-28T02:58:23.645Z,64.10
2017-11-28T03:01:19.901Z,64.30
2017-11-28T03:03:54.781Z,64.30
2017-11-28T03:06:25.670Z,64.20
2017-11-28T03:09:05.616Z,64.30
2017-11-28T03:11:45.959Z,64.30
2017-11-28T03:17:18.719Z,64.10
2017-11-28T03:20:22.651Z,64.30
2017-11-28T03:23:00.570Z,64.40
2017-11-28T03:25:36.897Z,64.40
2017-11-28T03:28:15.254Z,64.40
2017-11-28T03:30:55.756Z,65.10
2017-11-28T03:33:26.808Z,64.50
2017-11-28T03:36:03.600Z,64.30
2017-11-28T03:38:33.181Z,64.30
2017-11-28T03:41:03.339Z,64.50
2017-11-28T03:43:33.583Z,64.50
2017-11-28T03:46:10.367Z,64.30
2017-11-28T03:48:41.308Z,65.30
2017-11-28T03:51:12.153Z,64.20
2017-11-28T03:53:53.769Z,64.40
2017-11-28T03:56:24.477Z,64.50
2017-11-28T03:58:55.292Z,64.60
2017-11-28T04:01:24.756Z,64.70
2017-11-28T04:03:55.767Z,64.70
2017-11-28T04:06:31.382Z,64.70
2017-11-28T04:09:00.491Z,64.60
2017-11-28T04:11:35.135Z,64.50
2017-11-28T04:14:07.989Z,65.20
2017-11-28T04:16:38.311Z,64.40
2017-11-28T04:19:09.238Z,64.40
2017-11-28T04:21:40.671Z,64.00
2017-11-28T04:24:11.357Z,64.10
2017-11-28T04:26:46.167Z,64.10
2017-11-28T04:29:17.980Z,64.20
2017-11-28T04:31:52.064Z,64.00
2017-11-28T04:34:28.902Z,64.00
2017-11-28T04:36:58.227Z,64.00
2017-11-28T04:39:30.083Z,63.70
2017-11-28T04:42:05.414Z,63.80
2017-11-28T04:44:37.298Z,63.80
2017-11-28T04:47:12.128Z,63.50
2017-11-28T04:49:41.275Z,63.40
2017-11-28T04:52:11.792Z,63.20
2017-11-28T04:54:48.495Z,63.30
2017-11-28T04:57:17.716Z,63.30
2017-11-28T04:59:47.166Z,63.30
2017-11-28T05:02:23.833Z,63.00
2017-11-28T05:04:54.151Z,63.00
2017-11-28T05:07:30.343Z,62.70
2017-11-28T05:10:00.415Z,62.50
2017-11-28T05:12:29.309Z,62.40
2017-11-28T05:15:01.433Z,62.00
2017-11-28T05:17:31.495Z,61.80
2017-11-28T05:20:00.592Z,61.80
2017-11-28T05:22:30.261Z,60.50
2017-11-28T05:25:00.086Z,60.40
2017-11-28T05:27:29.702Z,61.10
2017-11-28T05:30:00.837Z,61.10
2017-11-28T05:32:37.082Z,61.30
2017-11-28T05:35:06.383Z,61.20
2017-11-28T05:37:41.969Z,61.20
2017-11-28T05:40:11.179Z,61.10
2017-11-28T05:42:43.350Z,61.20
2017-11-28T05:45:20.261Z,60.40
2017-11-28T05:48:05.589Z,60.40
2017-11-28T05:50:40.498Z,60.50
2017-11-28T05:53:15.563Z,60.80
2017-11-28T05:55:55.965Z,60.50
2017-11-28T05:58:25.355Z,60.40
2017-11-28T06:00:56.403Z,60.80
2017-11-28T06:03:31.702Z,61.00
2017-11-28T06:06:07.076Z,61.10
2017-11-28T06:08:42.326Z,61.10
2017-11-28T06:11:17.239Z,61.10
2017-11-28T06:13:53.461Z,61.50
2017-11-28T06:16:23.117Z,62.00
2017-11-28T06:18:58.857Z,62.50
2017-11-28T06:21:27.626Z,62.00
2017-11-28T06:24:03.653Z,62.30
2017-11-28T06:26:32.488Z,62.30
2017-11-28T06:29:07.499Z,62.30
2017-11-28T06:31:42.633Z,62.30
2017-11-28T06:34:12.116Z,62.70
2017-11-28T06:36:46.925Z,62.70
2017-11-28T06:39:15.693Z,62.70
2017-11-28T06:41:44.381Z,62.70
2017-11-28T06:44:13.052Z,62.70
2017-11-28T06:46:46.388Z,63.50
2017-11-28T06:49:15.061Z,62.90
2017-11-28T06:51:43.741Z,63.10
2017-11-28T06:54:18.408Z,63.20
2017-11-28T06:57:08.840Z,63.40
2017-11-28T06:59:37.521Z,63.30
2017-11-28T07:02:06.200Z,63.70
2017-11-28T07:04:44.964Z,63.80
2017-11-28T07:07:14.220Z,63.90
2017-11-28T07:09:46.441Z,63.80
2017-11-28T07:12:16.356Z,63.90
2017-11-28T07:14:45.341Z,64.00
2017-11-28T07:49:31.117Z,64.80
2017-11-28T07:52:05.920Z,64.90
2017-11-28T07:54:40.780Z,64.70
2017-11-28T07:57:09.465Z,65.00
2017-11-28T07:59:45.080Z,65.00
2017-11-28T08:02:20.012Z,65.00
2017-11-28T08:04:48.687Z,65.10
2017-11-28T08:07:18.128Z,64.80
2017-11-28T08:09:46.795Z,64.70
2017-11-28T08:12:15.494Z,64.60
2017-11-28T08:14:44.161Z,64.60
2017-11-28T08:17:12.853Z,64.80
2017-11-28T08:19:47.788Z,64.70
2017-11-28T08:22:16.485Z,64.70
2017-11-28T08:24:45.148Z,64.60
2017-11-28T08:27:13.816Z,64.70
2017-11-28T08:29:43.254Z,64.30
2017-11-28T08:32:11.934Z,64.30
2017-11-28T08:34:42.360Z,64.50
2017-11-28T08:37:11.897Z,64.40
2017-11-28T08:39:40.577Z,64.30
2017-11-28T08:42:09.248Z,64.70
2017-11-28T08:44:44.005Z,65.00
2017-11-28T08:47:12.684Z,65.10
2017-11-28T08:49:42.152Z,65.10
2017-11-28T08:52:10.824Z,65.10
2017-11-28T08:54:45.610Z,64.70
2017-11-28T08:57:14.275Z,64.60
2017-11-28T08:59:49.245Z,64.70
2017-11-28T09:02:17.896Z,64.70
2017-11-28T09:04:52.697Z,64.60
2017-11-28T09:07:27.505Z,64.50
2017-11-28T09:09:56.197Z,64.50
2017-11-28T09:12:26.950Z,64.60
2017-11-28T09:14:56.585Z,64.30
2017-11-28T09:17:32.192Z,64.40
2017-11-28T09:20:00.893Z,64.40
2017-11-28T09:22:30.554Z,64.50
2017-11-28T09:25:00.097Z,64.40
2017-11-28T09:27:28.764Z,64.50
2017-11-28T09:29:57.436Z,64.40
2017-11-28T09:32:26.127Z,64.30
2017-11-28T09:34:55.565Z,64.30
2017-11-28T09:37:24.399Z,64.30
2017-11-28T09:39:59.228Z,64.60
2017-11-28T09:42:27.899Z,64.30
2017-11-28T09:45:02.747Z,64.70
2017-11-28T09:47:32.209Z,64.70
2017-11-28T09:50:07.113Z,64.60
2017-11-28T09:52:42.065Z,64.60
2017-11-28T09:55:16.969Z,64.80
2017-11-28T09:57:45.680Z,64.60
2017-11-28T10:00:14.351Z,64.70
2017-11-28T10:02:43.031Z,64.60
2017-11-28T10:05:11.692Z,64.50
2017-11-28T10:07:46.609Z,64.50
2017-11-28T10:10:15.280Z,64.30
2017-11-28T10:12:50.202Z,64.50
2017-11-28T10:15:18.883Z,64.60
2017-11-28T10:17:47.562Z,64.00
2017-11-28T10:20:16.233Z,64.00
2017-11-28T10:22:51.894Z,64.20
2017-11-28T10:25:25.543Z,64.20
2017-11-28T10:27:55.072Z,64.10
2017-11-28T10:30:23.789Z,64.10
2017-11-28T10:32:52.547Z,64.20
2017-11-28T10:35:21.222Z,64.20
2017-11-28T10:37:56.791Z,64.90
2017-11-28T10:40:31.732Z,64.80
2017-11-28T10:43:07.636Z,64.70
2017-11-28T10:45:36.301Z,65.30
2017-11-28T10:48:04.991Z,64.90
2017-11-28T10:50:39.845Z,65.10
2017-11-28T10:53:12.589Z,64.70
2017-11-28T10:55:47.515Z,64.60
2017-11-28T10:58:16.201Z,64.30
2017-11-28T11:00:51.740Z,65.00
2017-11-28T11:03:26.702Z,65.00
2017-11-28T11:05:55.381Z,65.40
2017-11-28T11:08:24.079Z,65.30
2017-11-28T11:10:53.744Z,65.60
2017-11-28T11:13:22.578Z,65.60
2017-11-28T11:15:57.516Z,65.70
2017-11-28T11:18:26.960Z,65.20
2017-11-28T11:20:55.662Z,65.80
2017-11-28T11:23:24.326Z,65.00
2017-11-28T11:25:53.032Z,65.10
2017-11-28T11:28:21.704Z,65.20
2017-11-28T11:30:50.378Z,64.00
2017-11-28T11:33:19.056Z,64.10
2017-11-28T11:35:48.720Z,64.20
2017-11-28T11:38:18.304Z,64.20
2017-11-28T11:40:46.982Z,63.20
2017-11-28T11:43:17.295Z,63.50
2017-11-28T11:45:45.958Z,63.30
2017-11-28T11:48:14.631Z,63.30
2017-11-28T11:50:48.385Z,63.10
2017-11-28T11:53:24.024Z,63.40
2017-11-28T11:55:52.849Z,62.40
2017-11-28T11:58:39.105Z,62.50
2017-11-28T12:01:14.016Z,62.70
2017-11-28T12:03:49.616Z,63.00
2017-11-28T12:08:51.338Z,62.80
2017-11-28T12:11:20.053Z,62.50
2017-11-28T12:13:54.963Z,62.70
2017-11-28T12:16:32.501Z,62.60
2017-11-28T12:19:01.290Z,62.60
2017-11-28T12:21:36.208Z,62.50
2017-11-28T12:26:43.985Z,62.30
2017-11-28T12:29:13.581Z,62.70
2017-11-28T12:31:42.269Z,62.70
2017-11-28T12:34:17.976Z,62.90
2017-11-28T12:36:46.646Z,62.80
2017-11-28T12:39:21.480Z,63.00
2017-11-28T12:41:50.150Z,63.00
2017-11-28T12:44:25.090Z,62.80
2017-11-28T12:46:53.779Z,63.20
2017-11-28T12:49:22.486Z,63.30
2017-11-28T12:51:57.430Z,63.40
2017-11-28T12:54:27.105Z,63.00
2017-11-28T12:57:02.641Z,63.40
2017-11-28T12:59:37.558Z,63.40
2017-11-28T13:02:06.257Z,62.50
2017-11-28T13:04:34.933Z,62.90
2017-11-28T13:07:03.596Z,63.10
2017-11-28T13:09:38.569Z,63.10
2017-11-28T13:12:08.126Z,63.00
2017-11-28T13:14:44.645Z,63.00
2017-11-28T13:17:13.341Z,63.00
2017-11-28T13:19:42.028Z,62.90
2017-11-28T13:22:16.992Z,62.90
2017-11-28T13:24:46.460Z,62.40
2017-11-28T13:27:16.165Z,62.40
2017-11-28T13:29:44.866Z,62.70
2017-11-28T13:32:13.612Z,62.80
2017-11-28T13:34:42.281Z,62.70
2017-11-28T13:37:17.186Z,63.00
2017-11-28T13:39:45.858Z,63.60
2017-11-28T13:42:20.728Z,62.70
2017-11-28T13:44:49.396Z,62.50
2017-11-28T13:47:18.853Z,63.40
2017-11-28T13:49:47.546Z,63.30
2017-11-28T13:52:23.099Z,63.20
2017-11-28T13:54:58.007Z,63.20
2017-11-28T13:57:26.693Z,63.00
2017-11-28T13:59:55.377Z,63.00
2017-11-28T14:02:29.183Z,62.90
2017-11-28T14:04:57.842Z,62.70
2017-11-28T14:07:32.723Z,62.80
2017-11-28T14:10:01.401Z,62.90
2017-11-28T14:12:30.081Z,62.90
2017-11-28T14:14:58.773Z,63.70
2017-11-28T14:17:27.497Z,62.90
2017-11-28T14:23:29.124Z,62.80
2017-11-28T14:25:59.667Z,62.60
2017-11-28T14:28:28.372Z,62.90
2017-11-28T14:34:11.102Z,62.60
2017-11-28T14:36:39.780Z,62.70
2017-11-28T14:39:13.538Z,62.70
2017-11-28T14:41:49.728Z,62.60
2017-11-28T14:44:21.235Z,62.50
2017-11-28T14:46:56.132Z,62.30
2017-11-28T14:49:24.804Z,62.70
2017-11-28T14:51:58.910Z,62.70
2017-11-28T14:57:54.742Z,62.60
2017-11-28T15:00:35.286Z,63.10
2017-11-28T15:03:09.393Z,63.30
2017-11-28T15:05:43.598Z,63.40
2017-11-28T15:08:18.609Z,63.60
2017-11-28T15:10:50.817Z,63.50
2017-11-28T15:13:31.077Z,63.60
2017-11-28T15:16:11.375Z,63.40
2017-11-28T15:18:53.914Z,63.40
2017-11-28T15:24:36.310Z,63.50
2017-11-28T15:27:04.980Z,63.70
2017-11-28T15:29:37.982Z,63.80
2017-11-28T15:32:12.978Z,63.80
2017-11-28T15:34:47.764Z,63.60
2017-11-28T15:37:16.429Z,63.70
2017-11-28T15:39:45.109Z,63.70
2017-11-28T15:42:19.967Z,63.60
2017-11-28T15:44:54.971Z,63.60
2017-11-28T15:47:23.656Z,63.40
2017-11-28T15:49:58.665Z,63.50
2017-11-28T15:52:34.232Z,63.70
2017-11-28T15:55:09.144Z,63.60
2017-11-28T15:57:37.850Z,63.80
2017-11-28T16:00:06.579Z,63.90
2017-11-28T16:02:41.588Z,63.90
2017-11-28T16:05:16.555Z,63.90
2017-11-28T16:07:45.248Z,63.90
2017-11-28T16:10:18.944Z,63.90
2017-11-28T16:12:48.401Z,63.80
2017-11-28T16:15:23.216Z,63.80
2017-11-28T16:17:58.044Z,63.90
2017-11-28T16:20:26.763Z,64.00
2017-11-28T16:22:55.434Z,64.00
2017-11-28T16:25:25.747Z,64.10
2017-11-28T16:27:54.430Z,64.10
2017-11-28T16:30:23.113Z,64.10
2017-11-28T16:32:57.900Z,64.00
2017-11-28T16:35:32.821Z,63.90
2017-11-28T16:38:02.262Z,64.00
2017-11-28T16:40:37.048Z,64.00
2017-11-28T16:43:12.045Z,63.90
2017-11-28T16:45:40.857Z,64.10
2017-11-28T16:48:09.536Z,64.10
2017-11-28T16:50:38.209Z,64.10
2017-11-28T16:53:06.906Z,64.10
2017-11-28T16:55:41.836Z,64.10
2017-11-28T16:58:10.501Z,63.80
2017-11-28T17:00:39.390Z,63.20
2017-11-28T17:03:08.093Z,63.10
2017-11-28T17:05:42.878Z,63.20
2017-11-28T17:08:11.564Z,63.20
2017-11-28T17:10:46.512Z,63.20
2017-11-28T17:13:15.189Z,63.30
2017-11-28T17:15:50.120Z,63.40
2017-11-28T17:18:18.809Z,63.50
2017-11-28T17:20:47.738Z,63.50
2017-11-28T17:23:22.605Z,63.40
2017-11-28T17:25:57.484Z,63.30
2017-11-28T17:28:32.334Z,63.20
2017-11-28T17:31:07.136Z,63.20
2017-11-28T17:33:35.854Z,63.20
2017-11-28T17:36:04.532Z,63.00
2017-11-28T17:38:39.540Z,63.10
2017-11-28T17:41:08.228Z,63.10
2017-11-28T17:43:37.725Z,63.10
2017-11-28T17:46:08.086Z,63.20
2017-11-28T17:48:38.586Z,63.20
2017-11-28T17:51:13.415Z,63.00
2017-11-28T17:53:49.155Z,63.20
2017-11-28T17:56:17.848Z,63.20
2017-11-28T17:58:52.676Z,63.40
2017-11-28T18:01:21.356Z,63.50
2017-11-28T18:03:50.076Z,63.50
2017-11-28T18:06:24.976Z,63.50
2017-11-28T18:08:53.664Z,63.40
2017-11-28T18:11:24.080Z,63.10
2017-11-28T18:13:52.760Z,63.00
2017-11-28T18:16:22.501Z,63.20
2017-11-28T18:18:51.175Z,63.30
2017-11-28T18:21:26.163Z,63.20
2017-11-28T18:23:54.880Z,63.30
2017-11-28T18:26:23.681Z,63.20
2017-11-28T18:29:03.824Z,63.20
2017-11-28T18:31:33.450Z,63.20
2017-11-28T18:34:04.749Z,63.10
2017-11-28T18:36:35.144Z,63.20
2017-11-28T18:39:10.164Z,63.30
2017-11-28T18:41:38.949Z,63.20
2017-11-28T18:44:10.588Z,63.20
2017-11-28T18:46:41.397Z,63.30
2017-11-28T18:49:13.909Z,63.20
2017-11-28T18:51:43.604Z,63.20
2017-11-28T18:54:15.571Z,63.20
2017-11-28T18:56:45.298Z,63.20
2017-11-28T18:59:14.004Z,63.10
2017-11-28T19:01:43.598Z,62.80
2017-11-28T19:04:12.273Z,62.70
2017-11-28T19:06:40.981Z,62.70
2017-11-28T19:09:09.680Z,62.70
2017-11-28T19:11:41.500Z,62.70
2017-11-28T19:14:16.677Z,62.60
2017-11-28T19:16:47.156Z,62.50
2017-11-28T19:19:15.910Z,62.50
2017-11-28T19:21:50.766Z,62.70
2017-11-28T19:24:20.738Z,62.60
2017-11-28T19:26:49.581Z,62.60
2017-11-28T19:29:22.092Z,62.50
2017-11-28T19:31:50.788Z,62.50
2017-11-28T19:34:19.481Z,62.50
2017-11-28T19:36:54.982Z,62.70
2017-11-28T19:39:29.837Z,62.60
2017-11-28T19:42:05.545Z,62.80
2017-11-28T19:44:34.306Z,62.70
2017-11-28T19:47:10.216Z,62.80
2017-11-28T19:49:45.256Z,62.80
2017-11-28T19:52:20.578Z,62.80
2017-11-28T19:54:55.668Z,62.80
2017-11-28T19:57:24.668Z,62.10
2017-11-28T19:59:56.185Z,62.80
2017-11-28T20:02:31.229Z,62.80
2017-11-28T20:05:07.749Z,62.90
2017-11-28T20:07:36.759Z,62.90
2017-11-28T20:10:11.815Z,62.90
2017-11-28T20:12:41.417Z,63.00
2017-11-28T20:15:12.734Z,63.00
2017-11-28T20:17:42.372Z,63.00
2017-11-28T20:20:18.301Z,63.10
2017-11-28T20:22:56.203Z,63.10
2017-11-28T20:25:35.550Z,63.20
2017-11-28T20:28:10.123Z,63.40
2017-11-28T20:30:45.058Z,63.40
2017-11-28T20:33:15.873Z,63.50
2017-11-28T20:35:44.666Z,63.40
2017-11-28T20:38:17.285Z,63.40
2017-11-28T20:40:52.478Z,63.40
2017-11-28T20:43:30.423Z,63.30
2017-11-28T20:46:07.314Z,63.10
2017-11-28T20:48:50.837Z,63.20
2017-11-28T21:01:05.649Z,63.80
2017-11-28T21:10:07.452Z,64.00
2017-11-28T21:12:36.137Z,64.20
2017-11-28T21:15:04.824Z,64.20
2017-11-28T21:17:33.515Z,64.00
2017-11-28T21:20:02.240Z,64.00
2017-11-28T21:22:33.165Z,63.80
2017-11-28T21:25:02.826Z,63.80
2017-11-28T21:27:45.337Z,63.90
2017-11-28T21:30:27.236Z,63.80
2017-11-28T21:36:07.437Z,64.00
2017-11-28T22:24:11.552Z,66.80
2017-11-28T22:26:40.352Z,66.80
2017-11-28T22:29:10.806Z,66.70
2017-11-28T22:31:48.524Z,66.20
2017-11-28T22:34:24.188Z,66.20
2017-11-28T22:36:55.450Z,66.00
2017-11-28T22:39:30.701Z,65.80
2017-11-28T22:42:07.908Z,65.60
2017-11-28T22:44:36.594Z,65.00
2017-11-28T22:47:07.139Z,64.90
2017-11-28T22:49:41.343Z,65.30
2017-11-28T22:52:21.277Z,64.50
2017-11-28T22:55:05.561Z,64.40
2017-11-28T22:57:38.740Z,64.30
2017-11-28T23:00:08.209Z,64.10
2017-11-28T23:02:42.578Z,64.00
2017-11-28T23:08:06.835Z,64.10
2017-11-28T23:13:57.044Z,64.10
2017-11-28T23:16:32.915Z,64.40
2017-11-28T23:19:11.765Z,64.30
2017-11-28T23:21:47.765Z,64.50
2017-11-28T23:24:23.261Z,64.60
2017-11-28T23:26:52.715Z,64.70
2017-11-28T23:29:27.605Z,64.60
2017-11-28T23:32:04.215Z,64.70
2017-11-28T23:34:38.271Z,64.50
2017-11-28T23:37:07.732Z,65.30
2017-11-28T23:39:36.404Z,64.60
2017-11-28T23:42:05.086Z,64.30
2017-11-28T23:44:33.789Z,64.20
2017-11-28T23:47:02.531Z,63.80
2017-11-28T23:52:25.024Z,63.00
2017-11-28T23:55:01.012Z,63.80
2017-11-28T23:57:29.688Z,64.00
2017-11-28T23:59:58.370Z,64.00
